sensor_id;sensor_type;location;lat;lon;timestamp;pressure;altitude;pressure_sealevel;temperature;humidity
12949;BME280;6539;49.476;8.484;2023-04-04T00:00:32;101589.97;;;7.18;38.05
12949;BME280;6539;49.476;8.484;2023-04-04T00:03:00;101589.09;;;7.14;38.08
12949;BME280;6539;49.476;8.484;2023-04-04T00:05:28;101585.41;;;7.07;38.36
12949;BME280;6539;49.476;8.484;2023-04-04T00:07:54;101584.34;;;7.11;38.30
12949;BME280;6539;49.476;8.484;2023-04-04T00:10:22;101589.38;;;7.09;38.48
12949;BME280;6539;49.476;8.484;2023-04-04T00:12:48;101587.09;;;7.11;38.26
12949;BME280;6539;49.476;8.484;2023-04-04T00:15:13;101578.44;;;7.09;37.87
12949;BME280;6539;49.476;8.484;2023-04-04T00:17:40;101567.97;;;7.11;38.13
12949;BME280;6539;49.476;8.484;2023-04-04T00:20:06;101578.44;;;7.09;38.24
12949;BME280;6539;49.476;8.484;2023-04-04T00:22:34;101580.75;;;7.07;38.42
12949;BME280;6539;49.476;8.484;2023-04-04T00:25:02;101576.78;;;7.05;38.07
12949;BME280;6539;49.476;8.484;2023-04-04T00:27:29;101569.09;;;7.10;38.08
12949;BME280;6539;49.476;8.484;2023-04-04T00:29:54;101573.31;;;7.08;38.21
12949;BME280;6539;49.476;8.484;2023-04-04T00:32:21;101570.94;;;7.06;37.89
12949;BME280;6539;49.476;8.484;2023-04-04T00:34:52;101568.41;;;6.98;38.24
12949;BME280;6539;49.476;8.484;2023-04-04T00:37:20;101561.81;;;6.99;38.22
12949;BME280;6539;49.476;8.484;2023-04-04T00:39:48;101564.34;;;6.91;38.29
12949;BME280;6539;49.476;8.484;2023-04-04T00:42:14;101567.53;;;6.93;38.27
12949;BME280;6539;49.476;8.484;2023-04-04T00:44:42;101564.06;;;6.97;38.48
12949;BME280;6539;49.476;8.484;2023-04-04T00:47:08;101564.97;;;7.01;38.28
12949;BME280;6539;49.476;8.484;2023-04-04T00:49:33;101562.13;;;6.97;38.13
12949;BME280;6539;49.476;8.484;2023-04-04T00:51:59;101551.84;;;6.90;38.43
12949;BME280;6539;49.476;8.484;2023-04-04T00:54:25;101548.78;;;6.92;38.27
12949;BME280;6539;49.476;8.484;2023-04-04T00:56:56;101551.94;;;6.94;38.49
12949;BME280;6539;49.476;8.484;2023-04-04T00:59:25;101557.41;;;6.94;38.67
12949;BME280;6539;49.476;8.484;2023-04-04T01:01:56;101553.44;;;6.91;38.56
12949;BME280;6539;49.476;8.484;2023-04-04T01:04:22;101550.16;;;6.86;38.60
12949;BME280;6539;49.476;8.484;2023-04-04T01:06:49;101553.69;;;6.86;38.55
12949;BME280;6539;49.476;8.484;2023-04-04T01:09:15;101547.53;;;6.89;38.51
12949;BME280;6539;49.476;8.484;2023-04-04T01:11:42;101553.25;;;6.84;38.69
12949;BME280;6539;49.476;8.484;2023-04-04T01:14:11;101549.19;;;6.78;38.95
12949;BME280;6539;49.476;8.484;2023-04-04T01:16:39;101553.94;;;6.81;38.46
12949;BME280;6539;49.476;8.484;2023-04-04T01:19:15;101556.16;;;6.76;38.93
12949;BME280;6539;49.476;8.484;2023-04-04T01:21:45;101551.75;;;6.71;38.97
12949;BME280;6539;49.476;8.484;2023-04-04T01:24:15;101547.44;;;6.70;39.04
12949;BME280;6539;49.476;8.484;2023-04-04T01:26:43;101551.28;;;6.69;39.20
12949;BME280;6539;49.476;8.484;2023-04-04T01:29:11;101543.66;;;6.75;39.32
12949;BME280;6539;49.476;8.484;2023-04-04T01:31:49;101547.34;;;6.67;39.18
12949;BME280;6539;49.476;8.484;2023-04-04T01:40:43;101537.22;;;6.67;39.45
12949;BME280;6539;49.476;8.484;2023-04-04T01:43:13;101538.69;;;6.65;39.50
12949;BME280;6539;49.476;8.484;2023-04-04T01:45:39;101538.69;;;6.65;39.63
12949;BME280;6539;49.476;8.484;2023-04-04T01:48:07;101534.75;;;6.62;39.54
12949;BME280;6539;49.476;8.484;2023-04-04T01:50:35;101538.19;;;6.59;39.66
12949;BME280;6539;49.476;8.484;2023-04-04T01:53:03;101538.50;;;6.58;39.89
12949;BME280;6539;49.476;8.484;2023-04-04T01:55:32;101533.06;;;6.58;39.71
12949;BME280;6539;49.476;8.484;2023-04-04T01:57:57;101532.63;;;6.56;40.19
12949;BME280;6539;49.476;8.484;2023-04-04T02:00:25;101538.88;;;6.56;40.12
12949;BME280;6539;49.476;8.484;2023-04-04T02:02:56;101527.88;;;6.53;40.15
12949;BME280;6539;49.476;8.484;2023-04-04T02:05:24;101528.22;;;6.51;40.03
12949;BME280;6539;49.476;8.484;2023-04-04T02:07:50;101522.59;;;6.44;40.15
12949;BME280;6539;49.476;8.484;2023-04-04T02:10:18;101518.38;;;6.47;40.03
12949;BME280;6539;49.476;8.484;2023-04-04T02:12:46;101525.91;;;6.38;40.22
12949;BME280;6539;49.476;8.484;2023-04-04T02:15:12;101527.41;;;6.35;40.50
12949;BME280;6539;49.476;8.484;2023-04-04T02:17:40;101523.00;;;6.31;40.45
12949;BME280;6539;49.476;8.484;2023-04-04T02:20:07;101520.78;;;6.36;40.53
12949;BME280;6539;49.476;8.484;2023-04-04T02:22:36;101527.03;;;6.37;40.40
12949;BME280;6539;49.476;8.484;2023-04-04T02:25:01;101528.19;;;6.36;40.66
12949;BME280;6539;49.476;8.484;2023-04-04T02:27:28;101532.50;;;6.37;40.54
12949;BME280;6539;49.476;8.484;2023-04-04T02:29:55;101526.97;;;6.33;40.54
12949;BME280;6539;49.476;8.484;2023-04-04T02:32:22;101527.31;;;6.32;40.43
12949;BME280;6539;49.476;8.484;2023-04-04T02:34:53;101529.25;;;6.31;40.45
12949;BME280;6539;49.476;8.484;2023-04-04T02:37:18;101532.31;;;6.30;40.69
12949;BME280;6539;49.476;8.484;2023-04-04T02:39:46;101529.84;;;6.25;40.73
12949;BME280;6539;49.476;8.484;2023-04-04T02:42:15;101526.66;;;6.23;40.88
12949;BME280;6539;49.476;8.484;2023-04-04T02:44:40;101527.78;;;6.22;40.86
12949;BME280;6539;49.476;8.484;2023-04-04T02:47:07;101525.78;;;6.19;40.79
12949;BME280;6539;49.476;8.484;2023-04-04T02:49:33;101526.91;;;6.18;41.33
12949;BME280;6539;49.476;8.484;2023-04-04T02:51:59;101525.34;;;6.17;41.00
12949;BME280;6539;49.476;8.484;2023-04-04T02:54:27;101524.63;;;6.20;41.19
12949;BME280;6539;49.476;8.484;2023-04-04T02:56:53;101524.97;;;6.18;41.25
12949;BME280;6539;49.476;8.484;2023-04-04T02:59:19;101525.22;;;6.13;41.53
12949;BME280;6539;49.476;8.484;2023-04-04T03:01:46;101522.41;;;6.09;41.37
12949;BME280;6539;49.476;8.484;2023-04-04T03:04:12;101523.97;;;6.10;41.79
12949;BME280;6539;49.476;8.484;2023-04-04T03:06:38;101523.53;;;6.08;41.77
12949;BME280;6539;49.476;8.484;2023-04-04T03:09:06;101520.72;;;6.05;41.70
12949;BME280;6539;49.476;8.484;2023-04-04T03:11:34;101523.00;;;6.03;41.64
12949;BME280;6539;49.476;8.484;2023-04-04T03:14:02;101518.69;;;6.02;42.00
12949;BME280;6539;49.476;8.484;2023-04-04T03:16:28;101524.13;;;6.02;41.86
12949;BME280;6539;49.476;8.484;2023-04-04T03:18:56;101524.47;;;6.00;41.58
12949;BME280;6539;49.476;8.484;2023-04-04T03:21:24;101516.53;;;5.95;41.87
12949;BME280;6539;49.476;8.484;2023-04-04T03:23:50;101527.81;;;5.94;41.97
12949;BME280;6539;49.476;8.484;2023-04-04T03:26:18;101525.44;;;5.92;41.55
12949;BME280;6539;49.476;8.484;2023-04-04T03:28:44;101516.44;;;5.92;41.65
12949;BME280;6539;49.476;8.484;2023-04-04T03:31:11;101525.75;;;5.91;41.84
12949;BME280;6539;49.476;8.484;2023-04-04T03:33:37;101522.13;;;5.87;41.51
12949;BME280;6539;49.476;8.484;2023-04-04T03:36:10;101529.19;;;5.88;41.71
12949;BME280;6539;49.476;8.484;2023-04-04T03:38:37;101520.41;;;5.82;41.66
12949;BME280;6539;49.476;8.484;2023-04-04T03:41:04;101519.78;;;5.85;41.81
12949;BME280;6539;49.476;8.484;2023-04-04T03:43:33;101511.59;;;5.85;41.44
12949;BME280;6539;49.476;8.484;2023-04-04T03:46:03;101521.69;;;5.85;41.71
12949;BME280;6539;49.476;8.484;2023-04-04T03:48:30;101519.97;;;5.80;41.60
12949;BME280;6539;49.476;8.484;2023-04-04T03:50:59;101519.66;;;5.82;41.90
12949;BME280;6539;49.476;8.484;2023-04-04T03:53:25;101522.16;;;5.75;41.76
12949;BME280;6539;49.476;8.484;2023-04-04T03:55:58;101516.50;;;5.68;42.02
12949;BME280;6539;49.476;8.484;2023-04-04T03:58:24;101518.91;;;5.69;41.75
12949;BME280;6539;49.476;8.484;2023-04-04T04:00:54;101513.56;;;5.61;41.80
12949;BME280;6539;49.476;8.484;2023-04-04T04:03:22;101521.63;;;5.57;42.11
12949;BME280;6539;49.476;8.484;2023-04-04T04:05:48;101515.72;;;5.55;42.62
12949;BME280;6539;49.476;8.484;2023-04-04T04:08:15;101520.25;;;5.63;41.75
12949;BME280;6539;49.476;8.484;2023-04-04T04:10:43;101519.13;;;5.64;41.93
12949;BME280;6539;49.476;8.484;2023-04-04T04:13:09;101516.75;;;5.63;41.96
12949;BME280;6539;49.476;8.484;2023-04-04T04:15:37;101514.47;;;5.65;41.94
12949;BME280;6539;49.476;8.484;2023-04-04T04:18:03;101513.09;;;5.59;41.73
12949;BME280;6539;49.476;8.484;2023-04-04T04:20:31;101517.78;;;5.58;42.00
12949;BME280;6539;49.476;8.484;2023-04-04T04:22:57;101519.69;;;5.58;42.14
12949;BME280;6539;49.476;8.484;2023-04-04T04:25:25;101511.44;;;5.54;42.18
12949;BME280;6539;49.476;8.484;2023-04-04T04:27:56;101516.09;;;5.54;42.09
12949;BME280;6539;49.476;8.484;2023-04-04T04:30:22;101515.72;;;5.55;42.20
12949;BME280;6539;49.476;8.484;2023-04-04T04:32:51;101517.13;;;5.49;42.25
12949;BME280;6539;49.476;8.484;2023-04-04T04:35:17;101524.56;;;5.52;42.42
12949;BME280;6539;49.476;8.484;2023-04-04T04:37:42;101523.69;;;5.48;42.09
12949;BME280;6539;49.476;8.484;2023-04-04T04:40:09;101518.94;;;5.45;42.43
12949;BME280;6539;49.476;8.484;2023-04-04T04:42:35;101523.34;;;5.50;42.25
12949;BME280;6539;49.476;8.484;2023-04-04T04:45:00;101522.22;;;5.51;41.98
12949;BME280;6539;49.476;8.484;2023-04-04T04:47:29;101518.94;;;5.45;42.83
12949;BME280;6539;49.476;8.484;2023-04-04T04:49:54;101522.69;;;5.40;42.25
12949;BME280;6539;49.476;8.484;2023-04-04T04:52:23;101523.81;;;5.39;42.57
12949;BME280;6539;49.476;8.484;2023-04-04T04:54:48;101516.66;;;5.35;42.22
12949;BME280;6539;49.476;8.484;2023-04-04T04:57:17;101527.09;;;5.33;42.85
12949;BME280;6539;49.476;8.484;2023-04-04T04:59:43;101525.63;;;5.35;42.70
12949;BME280;6539;49.476;8.484;2023-04-04T05:02:08;101526.66;;;5.43;42.47
12949;BME280;6539;49.476;8.484;2023-04-04T05:04:34;101519.25;;;5.43;42.63
12949;BME280;6539;49.476;8.484;2023-04-04T05:07:02;101530.41;;;5.38;42.57
12949;BME280;6539;49.476;8.484;2023-04-04T05:09:28;101531.88;;;5.36;42.55
12949;BME280;6539;49.476;8.484;2023-04-04T05:11:56;101531.06;;;5.35;42.69
12949;BME280;6539;49.476;8.484;2023-04-04T05:14:27;101533.13;;;5.38;42.43
12949;BME280;6539;49.476;8.484;2023-04-04T05:16:55;101535.06;;;5.38;42.29
12949;BME280;6539;49.476;8.484;2023-04-04T05:19:23;101523.13;;;5.43;42.49
12949;BME280;6539;49.476;8.484;2023-04-04T05:21:48;101520.50;;;5.46;42.37
12949;BME280;6539;49.476;8.484;2023-04-04T05:24:14;101541.50;;;5.46;42.36
12949;BME280;6539;49.476;8.484;2023-04-04T05:26:41;101530.06;;;5.40;42.56
12949;BME280;6539;49.476;8.484;2023-04-04T05:29:07;101528.22;;;5.44;42.15
12949;BME280;6539;49.476;8.484;2023-04-04T05:31:33;101529.84;;;5.45;42.28
12949;BME280;6539;49.476;8.484;2023-04-04T05:33:59;101528.69;;;5.46;42.18
12949;BME280;6539;49.476;8.484;2023-04-04T05:36:35;101533.69;;;5.56;42.34
12949;BME280;6539;49.476;8.484;2023-04-04T05:39:04;101534.56;;;5.60;41.90
12949;BME280;6539;49.476;8.484;2023-04-04T05:41:33;101535.47;;;5.64;42.15
12949;BME280;6539;49.476;8.484;2023-04-04T05:43:58;101532.63;;;5.61;42.10
12949;BME280;6539;49.476;8.484;2023-04-04T05:46:24;101533.09;;;5.63;41.79
12949;BME280;6539;49.476;8.484;2023-04-04T05:48:50;101534.75;;;5.67;41.85
12949;BME280;6539;49.476;8.484;2023-04-04T05:51:19;101531.59;;;5.65;41.70
12949;BME280;6539;49.476;8.484;2023-04-04T05:53:45;101527.75;;;5.66;42.09
12949;BME280;6539;49.476;8.484;2023-04-04T05:56:14;101542.94;;;5.67;41.81
12949;BME280;6539;49.476;8.484;2023-04-04T05:58:39;101543.06;;;5.71;41.88
12949;BME280;6539;49.476;8.484;2023-04-04T06:01:08;101543.84;;;5.71;42.06
12949;BME280;6539;49.476;8.484;2023-04-04T06:03:36;101538.84;;;5.85;41.75
12949;BME280;6539;49.476;8.484;2023-04-04T06:06:07;101545.91;;;6.14;41.44
12949;BME280;6539;49.476;8.484;2023-04-04T06:08:33;101545.84;;;6.69;40.58
12949;BME280;6539;49.476;8.484;2023-04-04T06:10:59;101536.34;;;7.60;41.25
12949;BME280;6539;49.476;8.484;2023-04-04T06:13:25;101544.50;;;8.53;37.47
12949;BME280;6539;49.476;8.484;2023-04-04T06:15:50;101550.22;;;9.12;35.80
12949;BME280;6539;49.476;8.484;2023-04-04T06:18:18;101544.88;;;9.75;34.55
12949;BME280;6539;49.476;8.484;2023-04-04T06:20:44;101539.47;;;10.41;33.49
12949;BME280;6539;49.476;8.484;2023-04-04T06:23:10;101547.78;;;10.89;32.41
12949;BME280;6539;49.476;8.484;2023-04-04T06:25:38;101543.94;;;11.51;30.93
12949;BME280;6539;49.476;8.484;2023-04-04T06:28:04;101554.09;;;12.12;29.81
12949;BME280;6539;49.476;8.484;2023-04-04T06:30:35;101546.38;;;12.53;28.92
12949;BME280;6539;49.476;8.484;2023-04-04T06:33:05;101546.03;;;12.75;28.58
12949;BME280;6539;49.476;8.484;2023-04-04T06:35:30;101551.19;;;13.19;28.45
12949;BME280;6539;49.476;8.484;2023-04-04T06:38:00;101551.94;;;13.58;28.30
12949;BME280;6539;49.476;8.484;2023-04-04T06:40:28;101559.00;;;13.70;27.06
12949;BME280;6539;49.476;8.484;2023-04-04T06:42:56;101544.75;;;13.86;26.59
12949;BME280;6539;49.476;8.484;2023-04-04T06:45:24;101552.19;;;14.10;26.17
12949;BME280;6539;49.476;8.484;2023-04-04T06:47:53;101556.81;;;14.23;25.93
12949;BME280;6539;49.476;8.484;2023-04-04T06:50:21;101554.06;;;14.27;26.38
12949;BME280;6539;49.476;8.484;2023-04-04T06:52:49;101561.53;;;14.37;25.69
12949;BME280;6539;49.476;8.484;2023-04-04T06:55:16;101558.34;;;14.45;25.91
12949;BME280;6539;49.476;8.484;2023-04-04T06:57:52;101553.19;;;14.51;25.63
12949;BME280;6539;49.476;8.484;2023-04-04T07:00:18;101558.81;;;14.95;25.23
12949;BME280;6539;49.476;8.484;2023-04-04T07:02:44;101559.56;;;14.99;25.03
12949;BME280;6539;49.476;8.484;2023-04-04T07:05:12;101547.94;;;15.18;24.72
12949;BME280;6539;49.476;8.484;2023-04-04T07:07:43;101556.44;;;15.42;24.23
12949;BME280;6539;49.476;8.484;2023-04-04T07:10:09;101554.16;;;15.29;24.21
12949;BME280;6539;49.476;8.484;2023-04-04T07:12:35;101552.88;;;15.45;23.98
12949;BME280;6539;49.476;8.484;2023-04-04T07:15:01;101551.41;;;15.70;24.55
12949;BME280;6539;49.476;8.484;2023-04-04T07:17:28;101552.63;;;15.69;23.98
12949;BME280;6539;49.476;8.484;2023-04-04T07:19:56;101549.50;;;16.01;23.43
12949;BME280;6539;49.476;8.484;2023-04-04T07:22:24;101548.38;;;15.95;23.36
12949;BME280;6539;49.476;8.484;2023-04-04T07:24:50;101557.03;;;16.31;23.15
12949;BME280;6539;49.476;8.484;2023-04-04T07:27:18;101546.72;;;16.31;22.59
12949;BME280;6539;49.476;8.484;2023-04-04T07:29:46;101551.63;;;16.20;22.78
12949;BME280;6539;49.476;8.484;2023-04-04T07:32:12;101544.31;;;16.33;22.89
12949;BME280;6539;49.476;8.484;2023-04-04T07:34:38;101542.06;;;16.25;22.39
12949;BME280;6539;49.476;8.484;2023-04-04T07:37:06;101537.78;;;16.50;22.83
12949;BME280;6539;49.476;8.484;2023-04-04T07:39:35;101550.44;;;16.51;22.10
12949;BME280;6539;49.476;8.484;2023-04-04T07:42:01;101535.47;;;16.45;21.70
12949;BME280;6539;49.476;8.484;2023-04-04T07:44:27;101548.03;;;16.53;22.08
12949;BME280;6539;49.476;8.484;2023-04-04T07:46:52;101544.56;;;16.16;21.61
12949;BME280;6539;49.476;8.484;2023-04-04T07:49:20;101542.47;;;15.56;22.34
12949;BME280;6539;49.476;8.484;2023-04-04T07:51:49;101547.56;;;15.16;22.56
12949;BME280;6539;49.476;8.484;2023-04-04T07:54:17;101542.63;;;15.38;22.38
12949;BME280;6539;49.476;8.484;2023-04-04T07:56:48;101549.56;;;15.60;22.10
12949;BME280;6539;49.476;8.484;2023-04-04T07:59:16;101534.31;;;16.13;21.41
12949;BME280;6539;49.476;8.484;2023-04-04T08:01:42;101537.44;;;16.45;21.17
12949;BME280;6539;49.476;8.484;2023-04-04T08:04:10;101533.69;;;16.58;21.01
12949;BME280;6539;49.476;8.484;2023-04-04T08:06:38;101542.34;;;16.64;20.75
12949;BME280;6539;49.476;8.484;2023-04-04T08:09:04;101544.75;;;16.32;20.96
12949;BME280;6539;49.476;8.484;2023-04-04T08:11:30;101536.16;;;16.23;21.19
12949;BME280;6539;49.476;8.484;2023-04-04T08:13:55;101535.66;;;16.31;20.95
12949;BME280;6539;49.476;8.484;2023-04-04T08:16:21;101543.22;;;16.57;20.80
12949;BME280;6539;49.476;8.484;2023-04-04T08:18:48;101543.91;;;16.65;20.70
12949;BME280;6539;49.476;8.484;2023-04-04T08:21:16;101547.72;;;17.01;20.29
12949;BME280;6539;49.476;8.484;2023-04-04T08:23:42;101542.53;;;17.03;20.28
12949;BME280;6539;49.476;8.484;2023-04-04T08:26:07;101541.81;;;16.99;19.90
12949;BME280;6539;49.476;8.484;2023-04-04T08:28:33;101547.03;;;16.94;20.19
12949;BME280;6539;49.476;8.484;2023-04-04T08:30:59;101531.63;;;16.89;20.09
12949;BME280;6539;49.476;8.484;2023-04-04T08:33:30;101535.94;;;16.94;20.20
12949;BME280;6539;49.476;8.484;2023-04-04T08:35:56;101540.50;;;17.04;20.36
12949;BME280;6539;49.476;8.484;2023-04-04T08:38:26;101539.38;;;17.01;20.34
12949;BME280;6539;49.476;8.484;2023-04-04T08:40:52;101537.97;;;16.90;20.23
12949;BME280;6539;49.476;8.484;2023-04-04T08:43:25;101547.47;;;16.65;20.60
12949;BME280;6539;49.476;8.484;2023-04-04T08:45:53;101528.53;;;16.60;20.27
12949;BME280;6539;49.476;8.484;2023-04-04T08:48:24;101537.81;;;16.73;20.39
12949;BME280;6539;49.476;8.484;2023-04-04T08:50:57;101538.47;;;16.58;20.35
12949;BME280;6539;49.476;8.484;2023-04-04T08:53:25;101529.41;;;17.04;20.17
12949;BME280;6539;49.476;8.484;2023-04-04T08:55:53;101524.72;;;17.01;20.14
12949;BME280;6539;49.476;8.484;2023-04-04T08:58:22;101526.31;;;17.25;19.98
12949;BME280;6539;49.476;8.484;2023-04-04T09:00:54;101533.34;;;17.52;19.86
12949;BME280;6539;49.476;8.484;2023-04-04T09:03:26;101531.38;;;17.49;19.56
12949;BME280;6539;49.476;8.484;2023-04-04T09:05:54;101525.88;;;17.69;19.39
12949;BME280;6539;49.476;8.484;2023-04-04T09:08:21;101526.38;;;17.84;19.54
12949;BME280;6539;49.476;8.484;2023-04-04T09:10:51;101526.97;;;17.75;19.31
12949;BME280;6539;49.476;8.484;2023-04-04T09:13:17;101531.09;;;17.87;19.28
12949;BME280;6539;49.476;8.484;2023-04-04T09:15:52;101524.47;;;18.00;18.94
12949;BME280;6539;49.476;8.484;2023-04-04T09:18:23;101528.69;;;17.89;18.98
12949;BME280;6539;49.476;8.484;2023-04-04T09:20:51;101530.19;;;17.93;19.16
12949;BME280;6539;49.476;8.484;2023-04-04T09:23:20;101523.03;;;17.73;19.36
12949;BME280;6539;49.476;8.484;2023-04-04T09:25:53;101528.66;;;17.69;19.01
12949;BME280;6539;49.476;8.484;2023-04-04T09:28:22;101518.69;;;17.72;19.11
12949;BME280;6539;49.476;8.484;2023-04-04T09:30:54;101517.09;;;17.28;19.67
12949;BME280;6539;49.476;8.484;2023-04-04T09:33:25;101515.31;;;17.18;19.81
12949;BME280;6539;49.476;8.484;2023-04-04T09:35:58;101521.38;;;17.32;19.67
12949;BME280;6539;49.476;8.484;2023-04-04T09:38:28;101518.75;;;17.02;19.92
12949;BME280;6539;49.476;8.484;2023-04-04T09:40:56;101519.91;;;17.05;19.82
12949;BME280;6539;49.476;8.484;2023-04-04T09:43:23;101518.19;;;17.34;19.53
12949;BME280;6539;49.476;8.484;2023-04-04T09:45:59;101513.28;;;17.41;19.58
12949;BME280;6539;49.476;8.484;2023-04-04T09:48:30;101526.34;;;17.21;19.79
12949;BME280;6539;49.476;8.484;2023-04-04T09:51:01;101517.78;;;17.12;19.55
12949;BME280;6539;49.476;8.484;2023-04-04T09:53:28;101509.19;;;16.80;19.92
12949;BME280;6539;49.476;8.484;2023-04-04T09:55:56;101508.44;;;16.80;20.41
12949;BME280;6539;49.476;8.484;2023-04-04T09:58:27;101517.66;;;16.96;19.91
12949;BME280;6539;49.476;8.484;2023-04-04T10:00:58;101516.97;;;16.89;19.49
12949;BME280;6539;49.476;8.484;2023-04-04T10:03:30;101508.19;;;16.94;19.94
12949;BME280;6539;49.476;8.484;2023-04-04T10:06:03;101511.81;;;16.91;20.03
12949;BME280;6539;49.476;8.484;2023-04-04T10:08:30;101513.13;;;16.83;19.91
12949;BME280;6539;49.476;8.484;2023-04-04T10:10:58;101520.78;;;16.98;19.86
12949;BME280;6539;49.476;8.484;2023-04-04T10:13:27;101508.66;;;16.89;19.74
12949;BME280;6539;49.476;8.484;2023-04-04T10:16:01;101505.97;;;16.58;19.77
12949;BME280;6539;49.476;8.484;2023-04-04T10:18:32;101499.75;;;16.51;20.26
12949;BME280;6539;49.476;8.484;2023-04-04T10:21:03;101506.13;;;16.74;20.15
12949;BME280;6539;49.476;8.484;2023-04-04T10:23:29;101510.94;;;16.70;20.20
12949;BME280;6539;49.476;8.484;2023-04-04T10:25:56;101510.69;;;16.61;19.93
12949;BME280;6539;49.476;8.484;2023-04-04T10:28:28;101507.19;;;16.57;20.33
12949;BME280;6539;49.476;8.484;2023-04-04T10:31:08;101501.44;;;16.15;21.44
12949;BME280;6539;49.476;8.484;2023-04-04T10:34:09;101500.97;;;16.46;20.23
12949;BME280;6539;49.476;8.484;2023-04-04T10:37:11;101508.63;;;16.39;21.12
12949;BME280;6539;49.476;8.484;2023-04-04T10:40:04;101510.06;;;16.50;20.24
12949;BME280;6539;49.476;8.484;2023-04-04T10:42:37;101514.16;;;16.39;20.68
12949;BME280;6539;49.476;8.484;2023-04-04T10:45:08;101494.00;;;16.08;21.06
12949;BME280;6539;49.476;8.484;2023-04-04T10:47:41;101503.31;;;15.91;20.81
12949;BME280;6539;49.476;8.484;2023-04-04T10:50:08;101506.53;;;15.86;21.20
12949;BME280;6539;49.476;8.484;2023-04-04T10:52:44;101498.53;;;16.22;20.84
12949;BME280;6539;49.476;8.484;2023-04-04T10:55:14;101484.81;;;16.41;20.39
12949;BME280;6539;49.476;8.484;2023-04-04T10:57:49;101497.38;;;16.49;20.13
12949;BME280;6539;49.476;8.484;2023-04-04T11:00:24;101490.88;;;16.33;20.16
12949;BME280;6539;49.476;8.484;2023-04-04T11:02:58;101484.28;;;16.23;20.50
12949;BME280;6539;49.476;8.484;2023-04-04T11:05:31;101484.94;;;16.34;20.98
12949;BME280;6539;49.476;8.484;2023-04-04T11:08:01;101483.25;;;16.40;21.20
12949;BME280;6539;49.476;8.484;2023-04-04T11:10:28;101471.94;;;16.58;21.17
12949;BME280;6539;49.476;8.484;2023-04-04T11:12:57;101467.31;;;16.74;21.37
12949;BME280;6539;49.476;8.484;2023-04-04T11:15:56;101468.88;;;16.99;21.07
12949;BME280;6539;49.476;8.484;2023-04-04T11:21:21;101457.16;;;17.11;20.49
12949;BME280;6539;49.476;8.484;2023-04-04T11:28:59;101461.81;;;16.44;20.81
12949;BME280;6539;49.476;8.484;2023-04-04T11:31:42;101458.66;;;16.42;20.86
12949;BME280;6539;49.476;8.484;2023-04-04T11:34:28;101462.88;;;16.54;20.95
12949;BME280;6539;49.476;8.484;2023-04-04T11:36:55;101455.72;;;16.80;20.55
12949;BME280;6539;49.476;8.484;2023-04-04T11:39:26;101449.28;;;16.86;20.46
12949;BME280;6539;49.476;8.484;2023-04-04T11:42:06;101448.41;;;16.89;20.46
12949;BME280;6539;49.476;8.484;2023-04-04T11:47:23;101446.00;;;16.68;22.07
12949;BME280;6539;49.476;8.484;2023-04-04T11:49:52;101440.41;;;16.71;21.11
12949;BME280;6539;49.476;8.484;2023-04-04T11:52:23;101432.03;;;16.75;20.90
12949;BME280;6539;49.476;8.484;2023-04-04T11:54:50;101435.38;;;16.63;21.11
12949;BME280;6539;49.476;8.484;2023-04-04T11:57:18;101431.25;;;16.74;20.59
12949;BME280;6539;49.476;8.484;2023-04-04T11:59:49;101431.13;;;16.82;20.81
12949;BME280;6539;49.476;8.484;2023-04-04T12:02:25;101420.13;;;16.98;21.29
12949;BME280;6539;49.476;8.484;2023-04-04T12:04:56;101423.00;;;17.14;21.42
12949;BME280;6539;49.476;8.484;2023-04-04T12:07:23;101426.50;;;17.18;20.61
12949;BME280;6539;49.476;8.484;2023-04-04T12:09:51;101424.38;;;17.06;20.75
12949;BME280;6539;49.476;8.484;2023-04-04T12:12:18;101415.84;;;16.93;21.00
12949;BME280;6539;49.476;8.484;2023-04-04T12:14:46;101412.13;;;16.80;21.12
12949;BME280;6539;49.476;8.484;2023-04-04T12:17:14;101416.34;;;16.88;21.06
12949;BME280;6539;49.476;8.484;2023-04-04T12:19:45;101411.63;;;16.85;21.29
12949;BME280;6539;49.476;8.484;2023-04-04T12:22:11;101413.97;;;16.87;20.78
12949;BME280;6539;49.476;8.484;2023-04-04T12:24:37;101405.03;;;16.79;21.11
12949;BME280;6539;49.476;8.484;2023-04-04T12:27:04;101415.50;;;16.91;21.05
12949;BME280;6539;49.476;8.484;2023-04-04T12:29:32;101410.41;;;17.09;21.46
12949;BME280;6539;49.476;8.484;2023-04-04T12:32:06;101401.66;;;17.11;23.42
12949;BME280;6539;49.476;8.484;2023-04-04T12:34:42;101398.16;;;17.07;20.92
12949;BME280;6539;49.476;8.484;2023-04-04T12:37:09;101396.88;;;16.92;20.92
12949;BME280;6539;49.476;8.484;2023-04-04T12:39:45;101393.47;;;17.04;20.88
12949;BME280;6539;49.476;8.484;2023-04-04T12:42:24;101388.41;;;16.99;21.46
12949;BME280;6539;49.476;8.484;2023-04-04T12:44:52;101383.78;;;16.92;20.98
12949;BME280;6539;49.476;8.484;2023-04-04T12:47:19;101382.16;;;16.95;20.91
12949;BME280;6539;49.476;8.484;2023-04-04T12:49:52;101381.91;;;16.86;22.23
12949;BME280;6539;49.476;8.484;2023-04-04T12:52:29;101370.59;;;16.76;21.48
12949;BME280;6539;49.476;8.484;2023-04-04T12:55:08;101368.78;;;16.90;21.13
12949;BME280;6539;49.476;8.484;2023-04-04T12:57:37;101371.78;;;16.99;21.67
12949;BME280;6539;49.476;8.484;2023-04-04T13:00:04;101374.94;;;16.97;21.17
12949;BME280;6539;49.476;8.484;2023-04-04T13:02:35;101368.22;;;16.98;21.25
12949;BME280;6539;49.476;8.484;2023-04-04T13:05:07;101371.66;;;17.06;21.17
12949;BME280;6539;49.476;8.484;2023-04-04T13:07:38;101363.44;;;16.99;22.72
12949;BME280;6539;49.476;8.484;2023-04-04T13:10:11;101362.78;;;16.91;21.16
12949;BME280;6539;49.476;8.484;2023-04-04T13:12:56;101361.25;;;16.67;21.60
12949;BME280;6539;49.476;8.484;2023-04-04T13:15:47;101354.38;;;16.75;21.34
12949;BME280;6539;49.476;8.484;2023-04-04T13:18:20;101355.94;;;16.76;21.02
12949;BME280;6539;49.476;8.484;2023-04-04T13:20:47;101346.28;;;16.84;20.77
12949;BME280;6539;49.476;8.484;2023-04-04T13:23:14;101347.13;;;16.81;20.97
12949;BME280;6539;49.476;8.484;2023-04-04T13:25:41;101339.44;;;16.89;21.15
12949;BME280;6539;49.476;8.484;2023-04-04T13:28:11;101343.88;;;16.86;21.03
12949;BME280;6539;49.476;8.484;2023-04-04T13:30:43;101337.63;;;16.36;21.43